Bylot, Canada
Current Conditions -  °F | °C
As of 8:00 AM on Monday 24 Nov 2014 (Local Time) from CYYQ Reporting Station
Overcast Overcast  
Wind Chill: -25°   Ceiling: 8400
Heat Index: -11°   Visibility: 15mi
Dew Point: -17°   Wind: 6mph
Humidity: 77%   Direction: 220°SW
Pressure: 29.86"   Gusts: NA
Location:  58.42°N, 94.13°W
Report Text: CYYQ 241400Z 22005KT 15SM SCT055 BKN084 OVC270 M24/M27 A2986 RMK SC4AC2CI2 SLP115
Loading
Personal Weather Stations






























Interactive Weather Map New forecast layout! Learn more

10-Day Weather Forecast

Advertisements
Track Severe Weather on mobile